createdAt,value
2022-12-20T00:00:24.015Z,15.1
2022-12-20T00:01:26.028Z,14.9
2022-12-20T00:02:28.928Z,15
2022-12-20T00:03:32.095Z,15
2022-12-20T00:04:34.615Z,15.1
2022-12-20T00:05:37.122Z,15.1
2022-12-20T00:06:39.355Z,15.1
2022-12-20T00:07:41.903Z,15.1
2022-12-20T00:08:44.413Z,15.1
2022-12-20T00:09:47.025Z,15.1
2022-12-20T00:10:49.268Z,15.1
2022-12-20T00:11:51.255Z,15.1
2022-12-20T00:12:53.758Z,15.1
2022-12-20T00:13:56.412Z,15.1
2022-12-20T00:14:58.931Z,15.2
2022-12-20T00:16:01.452Z,15.2
2022-12-20T00:17:03.700Z,15.2
2022-12-20T00:18:06.082Z,15.1
2022-12-20T00:19:09.099Z,15.3
2022-12-20T00:20:11.337Z,15.2
2022-12-20T00:21:13.297Z,15.1
2022-12-20T00:22:15.859Z,15.2
2022-12-20T00:23:17.806Z,15.2
2022-12-20T00:25:25.334Z,15.2
2022-12-20T00:26:27.881Z,15.1
2022-12-20T00:27:30.449Z,15.2
2022-12-20T00:28:32.987Z,15.1
2022-12-20T00:29:35.567Z,15.2
2022-12-20T00:30:37.509Z,15.2
2022-12-20T00:31:39.568Z,15.2
2022-12-20T00:32:42.288Z,15.2
2022-12-20T00:33:44.548Z,15.2
2022-12-20T00:34:47.131Z,15.2
2022-12-20T00:35:49.677Z,15.2
2022-12-20T00:36:52.194Z,15.2
2022-12-20T00:37:54.694Z,15.3
2022-12-20T00:38:56.901Z,15.2
2022-12-20T00:39:59.425Z,15.2
2022-12-20T00:41:01.773Z,15.2
2022-12-20T00:42:04.708Z,15.2
2022-12-20T00:43:07.386Z,15.2
2022-12-20T00:44:09.935Z,15.2
2022-12-20T00:45:12.475Z,15.3
2022-12-20T00:46:14.710Z,15.3
2022-12-20T00:47:17.495Z,15.2
2022-12-20T00:48:20.465Z,15.2
2022-12-20T00:49:22.994Z,15.2
2022-12-20T00:50:25.507Z,15.2
2022-12-20T00:51:27.997Z,15.2
2022-12-20T00:52:30.512Z,15.2
2022-12-20T00:53:32.745Z,15.2
2022-12-20T00:54:34.979Z,15.2
2022-12-20T00:55:37.178Z,15.3
2022-12-20T00:56:39.449Z,15.2
2022-12-20T00:57:41.966Z,15.2
2022-12-20T00:58:43.927Z,15.2
2022-12-20T00:59:46.181Z,15.3
2022-12-20T01:01:53.598Z,15.2
2022-12-20T01:02:57.476Z,15.2
2022-12-20T01:04:00.511Z,15.3
2022-12-20T01:05:02.810Z,15.3
2022-12-20T01:06:05.348Z,15.3
2022-12-20T01:07:07.860Z,15.3
2022-12-20T01:08:10.371Z,15.3
2022-12-20T01:09:12.569Z,15.3
2022-12-20T01:10:15.089Z,15.3
2022-12-20T01:11:17.628Z,15.2
2022-12-20T01:12:20.227Z,15.2
2022-12-20T01:13:22.740Z,15.3
2022-12-20T01:14:25.287Z,15.3
2022-12-20T01:15:27.819Z,15.2
2022-12-20T01:16:30.687Z,15.3
2022-12-20T01:17:33.548Z,15.2
2022-12-20T01:18:35.778Z,15.3
2022-12-20T01:19:38.279Z,15.3
2022-12-20T01:20:40.787Z,15.3
2022-12-20T01:21:43.059Z,15.3
2022-12-20T01:24:04.951Z,15.4
2022-12-20T01:25:07.207Z,15.4
2022-12-20T01:26:09.799Z,15.4
2022-12-20T01:27:12.400Z,15.3
2022-12-20T01:28:14.368Z,15.4
2022-12-20T01:29:16.943Z,15.3
2022-12-20T01:30:19.536Z,15.3
2022-12-20T01:31:22.256Z,15.5
2022-12-20T01:32:25.145Z,15.3
2022-12-20T01:33:27.398Z,15.3
2022-12-20T01:34:29.666Z,15.5
2022-12-20T01:35:32.206Z,15.3
2022-12-20T01:36:34.185Z,15.3
2022-12-20T01:37:36.677Z,15.3
2022-12-20T01:38:39.238Z,15.3
2022-12-20T01:39:41.463Z,15.5
2022-12-20T01:40:43.992Z,15.4
2022-12-20T01:41:46.555Z,15.4
2022-12-20T01:42:48.790Z,15.4
2022-12-20T01:43:51.323Z,15.4
2022-12-20T01:44:53.552Z,15.4
2022-12-20T01:45:55.940Z,15.3
2022-12-20T01:46:58.812Z,15.4
2022-12-20T01:48:01.409Z,15.5
2022-12-20T01:49:03.721Z,15.6
2022-12-20T01:50:06.241Z,15.4
2022-12-20T01:51:08.183Z,15.3
2022-12-20T01:52:10.704Z,15.4
2022-12-20T01:53:13.259Z,15.4
2022-12-20T01:54:15.859Z,15.3
2022-12-20T01:55:18.391Z,15.6
2022-12-20T01:56:20.906Z,15.4
2022-12-20T01:57:23.472Z,15.4
2022-12-20T01:58:25.980Z,15.4
2022-12-20T01:59:28.231Z,15.5
2022-12-20T02:00:30.742Z,15.5
2022-12-20T02:01:33.602Z,15.5
2022-12-20T02:02:37.241Z,15.6
2022-12-20T02:03:40.783Z,15.3
2022-12-20T02:04:43.695Z,15.4
2022-12-20T02:05:46.180Z,15.4
2022-12-20T02:06:48.419Z,15.3
2022-12-20T02:07:50.926Z,15.6
2022-12-20T02:08:52.903Z,15.4
2022-12-20T02:09:55.391Z,15.6
2022-12-20T02:10:57.922Z,15.6
2022-12-20T02:11:59.847Z,15.5
2022-12-20T02:13:02.178Z,15.4
2022-12-20T02:14:04.665Z,15.4
2022-12-20T02:15:07.233Z,15.4
2022-12-20T02:16:09.553Z,15.4
2022-12-20T02:17:12.677Z,15.3
2022-12-20T02:18:14.976Z,15.4
2022-12-20T02:19:17.522Z,15.4
2022-12-20T02:20:20.033Z,15.4
2022-12-20T02:21:22.542Z,15.4
2022-12-20T02:22:25.084Z,15.6
2022-12-20T02:23:27.621Z,15.6
2022-12-20T02:24:30.140Z,15.3
2022-12-20T02:25:32.637Z,15.4
2022-12-20T02:26:34.911Z,15.5
2022-12-20T02:27:38.575Z,15.5
2022-12-20T02:28:40.854Z,15.5
2022-12-20T02:29:44.657Z,15.5
2022-12-20T02:30:47.192Z,15.6
2022-12-20T02:31:49.610Z,15.6
2022-12-20T02:32:52.448Z,15.4
2022-12-20T02:33:55.000Z,15.4
2022-12-20T02:34:57.947Z,15.4
2022-12-20T02:36:00.448Z,15.4
2022-12-20T02:37:02.963Z,15.5
2022-12-20T02:38:05.539Z,15.7
2022-12-20T02:39:08.050Z,15.5
2022-12-20T02:40:10.355Z,15.5
2022-12-20T02:41:12.580Z,15.5
2022-12-20T02:42:15.110Z,15.4
2022-12-20T02:43:17.630Z,15.4
2022-12-20T02:44:20.112Z,15.6
2022-12-20T02:45:22.633Z,15.6
2022-12-20T02:46:25.277Z,15.5
2022-12-20T02:47:28.091Z,15.5
2022-12-20T02:48:30.643Z,15.6
2022-12-20T02:49:33.213Z,15.5
2022-12-20T02:50:35.918Z,15.5
2022-12-20T02:51:37.853Z,15.4
2022-12-20T02:53:45.079Z,15.4
2022-12-20T02:54:47.620Z,15.7
2022-12-20T02:55:49.823Z,15.3
2022-12-20T02:56:52.357Z,15.6
2022-12-20T02:58:59.572Z,15.4
2022-12-20T03:00:02.135Z,15.6
2022-12-20T03:01:04.907Z,15.4
2022-12-20T03:02:08.192Z,15.5
2022-12-20T03:03:11.815Z,15.4
2022-12-20T03:04:15.260Z,15.7
2022-12-20T03:05:17.816Z,15.5
2022-12-20T03:06:20.136Z,15.4
2022-12-20T03:07:22.378Z,15.6
2022-12-20T03:08:24.609Z,15.4
2022-12-20T03:09:26.908Z,15.6
2022-12-20T03:10:29.173Z,15.5
2022-12-20T03:11:31.719Z,15.5
2022-12-20T03:12:33.954Z,15.6
2022-12-20T03:13:36.530Z,15.7
2022-12-20T03:14:38.471Z,15.4
2022-12-20T03:15:41.000Z,15.6
2022-12-20T03:16:43.600Z,15.6
2022-12-20T03:17:46.464Z,15.5
2022-12-20T03:18:48.989Z,15.3
2022-12-20T03:19:50.669Z,15.6
2022-12-20T03:20:53.281Z,15.5
2022-12-20T03:21:55.871Z,15.7
2022-12-20T03:22:58.374Z,15.5
2022-12-20T03:24:00.602Z,15.4
2022-12-20T03:25:02.819Z,15.6
2022-12-20T03:26:05.079Z,15.7
2022-12-20T03:27:07.070Z,15.6
2022-12-20T03:28:09.317Z,15.4
2022-12-20T03:29:11.825Z,15.6
2022-12-20T03:30:14.398Z,15.6
2022-12-20T03:31:16.783Z,15.7
2022-12-20T03:32:19.781Z,15.6
2022-12-20T03:33:21.768Z,15.5
2022-12-20T03:34:24.312Z,15.6
2022-12-20T03:35:26.834Z,15.6
2022-12-20T03:36:29.339Z,15.7
2022-12-20T03:37:31.597Z,15.6
2022-12-20T03:38:33.856Z,15.5
2022-12-20T03:39:36.123Z,15.6
2022-12-20T03:40:38.639Z,15.6
2022-12-20T03:41:40.881Z,15.6
2022-12-20T03:42:44.357Z,15.6
2022-12-20T03:43:46.910Z,15.5
2022-12-20T03:44:49.572Z,15.7
2022-12-20T03:45:52.576Z,15.5
2022-12-20T03:46:55.295Z,15.6
2022-12-20T03:47:57.884Z,15.4
2022-12-20T03:49:00.183Z,15.4
2022-12-20T03:50:02.684Z,15.6
2022-12-20T03:51:05.217Z,15.7
2022-12-20T03:52:07.761Z,15.6
2022-12-20T03:53:10.332Z,15.5
2022-12-20T03:54:12.324Z,15.5
2022-12-20T03:55:14.828Z,15.7
2022-12-20T03:56:17.363Z,15.6
2022-12-20T03:57:19.886Z,15.6
2022-12-20T03:58:22.406Z,15.6
2022-12-20T03:59:24.943Z,15.6
2022-12-20T04:00:27.432Z,15.6
2022-12-20T04:01:30.217Z,15.6
2022-12-20T04:02:33.899Z,15.7
2022-12-20T04:03:37.667Z,15.6
2022-12-20T04:04:40.574Z,15.7
2022-12-20T04:05:43.088Z,15.7
2022-12-20T04:06:45.641Z,15.6
2022-12-20T04:07:48.195Z,15.6
2022-12-20T04:08:50.763Z,15.7
2022-12-20T04:09:53.306Z,15.5
2022-12-20T04:10:55.547Z,15.6
2022-12-20T04:11:57.483Z,15.7
2022-12-20T04:13:00.010Z,15.5
2022-12-20T04:14:02.546Z,15.5
2022-12-20T04:15:05.061Z,15.5
2022-12-20T04:16:07.378Z,15.7
2022-12-20T04:17:10.141Z,15.4
2022-12-20T04:18:12.712Z,15.6
2022-12-20T04:19:14.682Z,15.5
2022-12-20T04:20:16.961Z,15.5
2022-12-20T04:21:19.465Z,15.6
2022-12-20T04:22:21.700Z,15.5
2022-12-20T04:23:24.242Z,15.3
2022-12-20T04:24:26.818Z,15.5
2022-12-20T04:25:29.368Z,15.5
2022-12-20T04:26:31.897Z,15.5
2022-12-20T04:27:33.871Z,15.4
2022-12-20T04:28:36.397Z,15.4
2022-12-20T04:29:38.958Z,15.3
2022-12-20T04:30:41.175Z,15.5
2022-12-20T04:31:43.883Z,15.4
2022-12-20T04:32:46.126Z,15.5
2022-12-20T04:33:48.640Z,15.5
2022-12-20T04:34:51.157Z,15.3
2022-12-20T04:35:53.731Z,15.4
2022-12-20T04:36:56.226Z,15.4
2022-12-20T04:37:58.501Z,15.4
2022-12-20T04:39:01.090Z,15.3
2022-12-20T04:40:03.939Z,15.5
2022-12-20T04:41:05.942Z,15.4
2022-12-20T04:42:08.462Z,15.5
2022-12-20T04:43:10.985Z,15.4
2022-12-20T04:44:13.510Z,15.4
2022-12-20T04:45:16.095Z,15.4
2022-12-20T04:46:18.725Z,15.3
2022-12-20T04:47:21.235Z,15.4
2022-12-20T04:49:28.467Z,15.3
2022-12-20T04:50:30.744Z,15.3
2022-12-20T04:51:33.351Z,15.4
2022-12-20T04:52:35.369Z,15.3
2022-12-20T04:53:41.864Z,15.3
2022-12-20T04:54:44.373Z,15.3
2022-12-20T04:55:46.943Z,15.4
2022-12-20T04:56:49.459Z,15.4
2022-12-20T04:57:51.958Z,15.2
2022-12-20T04:58:53.935Z,15.4
2022-12-20T04:59:56.186Z,15.5
2022-12-20T05:00:58.688Z,15.3
2022-12-20T05:02:01.510Z,15.3
2022-12-20T05:03:04.948Z,15.6
2022-12-20T05:04:08.694Z,15.3
2022-12-20T05:05:11.474Z,15.4
2022-12-20T05:06:13.771Z,15.3
2022-12-20T05:07:16.310Z,15.3
2022-12-20T05:08:18.870Z,15.3
2022-12-20T05:09:21.415Z,15.4
2022-12-20T05:10:23.953Z,15.3
2022-12-20T05:11:26.500Z,15.4
2022-12-20T05:12:28.721Z,15.4
2022-12-20T05:13:30.963Z,15.3
2022-12-20T05:14:33.501Z,15.3
2022-12-20T05:15:35.739Z,15.3
2022-12-20T05:16:40.044Z,15.4
2022-12-20T05:17:43.833Z,15.4
2022-12-20T05:19:51.348Z,15.3
2022-12-20T05:20:53.627Z,15.3
2022-12-20T05:21:56.139Z,15.3
2022-12-20T05:22:58.696Z,15.4
2022-12-20T05:24:01.219Z,15.3
2022-12-20T05:25:03.783Z,15.3
2022-12-20T05:26:06.204Z,15.3
2022-12-20T05:27:08.837Z,15.4
2022-12-20T05:28:11.375Z,15.4
2022-12-20T05:29:13.588Z,15.3
2022-12-20T05:30:15.862Z,15.3
2022-12-20T05:31:18.461Z,15.3
2022-12-20T05:32:20.975Z,15.3
2022-12-20T05:33:25.493Z,15.5
2022-12-20T05:34:28.733Z,15.3
2022-12-20T05:35:31.397Z,15.3
2022-12-20T05:36:34.315Z,15.4
2022-12-20T05:37:36.825Z,15.3
2022-12-20T05:38:38.791Z,15.3
2022-12-20T05:39:41.296Z,15.4
2022-12-20T05:40:44.813Z,15.3
2022-12-20T05:41:47.346Z,15.3
2022-12-20T05:42:49.929Z,15.3
2022-12-20T05:43:52.465Z,15.3
2022-12-20T05:44:54.748Z,15.3
2022-12-20T05:45:57.259Z,15.3
2022-12-20T05:46:59.732Z,15.3
2022-12-20T05:48:02.540Z,15.3
2022-12-20T05:49:04.808Z,15.2
2022-12-20T05:50:07.352Z,15.4
2022-12-20T05:51:13.059Z,15.4
2022-12-20T05:52:15.325Z,15.3
2022-12-20T05:53:17.904Z,15.3
2022-12-20T05:54:20.462Z,15.4
2022-12-20T05:55:22.985Z,15.3
2022-12-20T05:56:29.003Z,15.3
2022-12-20T05:57:31.543Z,15.3
2022-12-20T05:58:33.856Z,15.3
2022-12-20T05:59:36.133Z,15.3
2022-12-20T06:00:38.676Z,15.4
2022-12-20T06:01:41.221Z,15.4
2022-12-20T06:02:44.635Z,15.3
2022-12-20T06:03:48.227Z,15.2
2022-12-20T06:04:51.414Z,15.3
2022-12-20T06:05:53.645Z,15.3
2022-12-20T06:06:55.618Z,15.2
2022-12-20T06:07:57.880Z,15.3
2022-12-20T06:09:00.422Z,15.3
2022-12-20T06:10:03.005Z,15.2
2022-12-20T06:11:05.320Z,15.3
2022-12-20T06:12:07.881Z,15.2
2022-12-20T06:13:10.410Z,15.3
2022-12-20T06:14:12.978Z,15.3
2022-12-20T06:15:15.511Z,15.3
2022-12-20T06:16:17.874Z,15.3
2022-12-20T06:17:20.572Z,15.3
2022-12-20T06:18:22.839Z,15.3
2022-12-20T06:19:25.374Z,15.3
2022-12-20T06:20:27.924Z,15.3
2022-12-20T06:21:30.425Z,15.3
2022-12-20T06:22:32.949Z,15.3
2022-12-20T06:23:35.462Z,15.3
2022-12-20T06:25:42.982Z,15.3
2022-12-20T06:26:45.520Z,15.3
2022-12-20T06:27:47.790Z,15.3
2022-12-20T06:28:49.752Z,15.3
2022-12-20T06:29:52.359Z,15.3
2022-12-20T06:30:54.924Z,15.3
2022-12-20T06:31:57.396Z,15.4
2022-12-20T06:33:00.350Z,15.3
2022-12-20T06:34:02.301Z,15.4
2022-12-20T06:35:04.849Z,15.2
2022-12-20T06:36:07.145Z,15.3
2022-12-20T06:37:09.673Z,15.3
2022-12-20T06:38:11.942Z,15.3
2022-12-20T06:39:14.157Z,15.2
2022-12-20T06:40:16.714Z,15.3
2022-12-20T06:41:18.748Z,15.3
2022-12-20T06:42:20.985Z,15.3
2022-12-20T06:43:23.279Z,15.3
2022-12-20T06:44:25.837Z,15.3
2022-12-20T06:45:28.626Z,15.3
2022-12-20T06:46:35.725Z,15.3
2022-12-20T06:47:38.696Z,15.2
2022-12-20T06:48:41.218Z,15.3
2022-12-20T06:49:43.486Z,15.3
2022-12-20T06:51:51.027Z,15.2
2022-12-20T06:52:53.579Z,15.3
2022-12-20T06:53:55.832Z,15.3
2022-12-20T06:54:58.367Z,15.3
2022-12-20T06:56:00.925Z,15.3
2022-12-20T06:57:02.649Z,15.2
2022-12-20T06:58:04.656Z,15.2
2022-12-20T06:59:07.184Z,15.3
2022-12-20T07:00:09.516Z,15.2
2022-12-20T07:01:12.294Z,15.3
2022-12-20T07:02:15.860Z,15.2
2022-12-20T07:03:19.836Z,15.2
2022-12-20T07:04:22.297Z,15.3
2022-12-20T07:05:24.552Z,15.3
2022-12-20T07:06:27.088Z,15.3
2022-12-20T07:07:29.633Z,15.3
2022-12-20T07:08:31.923Z,15.2
2022-12-20T07:09:34.473Z,15.3
2022-12-20T07:10:37.162Z,15.3
2022-12-20T07:11:39.772Z,15.2
2022-12-20T07:13:47.025Z,15.3
2022-12-20T07:14:49.611Z,15.3
2022-12-20T07:15:52.195Z,15.3
2022-12-20T07:16:54.717Z,15.2
2022-12-20T07:17:57.375Z,15.2
2022-12-20T07:18:59.645Z,15.3
2022-12-20T07:21:07.226Z,15.2
2022-12-20T07:22:09.756Z,15.2
2022-12-20T07:23:12.011Z,15.3
2022-12-20T07:24:14.302Z,15.3
2022-12-20T07:25:16.845Z,15.3
2022-12-20T07:26:19.404Z,15.2
2022-12-20T07:27:21.672Z,15.3
2022-12-20T07:29:29.177Z,15.3
2022-12-20T07:30:31.620Z,15.2
2022-12-20T07:31:34.821Z,15.3
2022-12-20T07:32:38.226Z,15.3
2022-12-20T07:33:40.565Z,15.3
2022-12-20T07:34:43.732Z,15.2
2022-12-20T07:36:51.281Z,15.2
2022-12-20T07:37:53.319Z,15.3
2022-12-20T07:38:55.306Z,15.2
2022-12-20T07:39:57.864Z,15.2
2022-12-20T07:41:00.459Z,15.2
2022-12-20T07:42:03.044Z,15.2
2022-12-20T07:43:05.813Z,15.2
2022-12-20T07:44:08.438Z,15.2
2022-12-20T07:45:11.082Z,15.2
2022-12-20T07:46:13.343Z,15.2
2022-12-20T07:47:15.905Z,15.2
2022-12-20T07:49:23.276Z,15.3
2022-12-20T07:50:26.379Z,15.2
2022-12-20T07:51:30.194Z,15.3
2022-12-20T07:52:32.773Z,15.2
2022-12-20T07:53:35.456Z,15.2
2022-12-20T07:54:38.773Z,15.2
2022-12-20T07:55:41.026Z,15.2
2022-12-20T07:56:44.114Z,15.3
2022-12-20T07:57:46.813Z,15.2
2022-12-20T07:58:49.277Z,15.2
2022-12-20T07:59:51.600Z,15.2
2022-12-20T08:00:54.217Z,15.3
2022-12-20T08:03:02.259Z,15.2
2022-12-20T08:04:05.861Z,15.2
2022-12-20T08:05:08.787Z,15.2
2022-12-20T08:06:11.093Z,15.2
2022-12-20T08:07:12.759Z,15.2
2022-12-20T08:08:15.367Z,15.2
2022-12-20T08:09:17.330Z,15.2
2022-12-20T08:10:19.304Z,15.2
2022-12-20T08:11:21.591Z,15.2
2022-12-20T08:12:23.322Z,15.2
2022-12-20T08:13:26.978Z,15.2
2022-12-20T08:14:29.502Z,15.2
2022-12-20T08:15:31.490Z,15.3
2022-12-20T08:16:33.486Z,15.2
2022-12-20T08:17:36.255Z,15.2
2022-12-20T08:18:38.540Z,15.2
2022-12-20T08:19:41.130Z,15.2
2022-12-20T08:20:43.647Z,15.2
2022-12-20T08:21:46.204Z,15.2
2022-12-20T08:22:48.733Z,15.2
2022-12-20T08:23:51.301Z,15.2
2022-12-20T08:24:53.570Z,15.3
2022-12-20T08:25:56.132Z,15.2
2022-12-20T08:26:58.666Z,15.2
2022-12-20T08:28:00.593Z,15.2
2022-12-20T08:29:02.802Z,15.2
2022-12-20T08:30:05.184Z,15.2
2022-12-20T08:31:07.990Z,15.1
2022-12-20T08:32:10.602Z,15.2
2022-12-20T08:33:13.111Z,15.2
2022-12-20T08:34:15.673Z,15.2
2022-12-20T08:35:18.312Z,15.2
2022-12-20T08:36:20.907Z,15.2
2022-12-20T08:37:23.507Z,15.2
2022-12-20T08:38:25.514Z,15.2
2022-12-20T08:39:28.080Z,15.2
2022-12-20T08:40:30.653Z,15.2
2022-12-20T08:41:33.238Z,15.2
2022-12-20T08:42:35.533Z,15.2
2022-12-20T08:43:39.047Z,15.2
2022-12-20T08:44:41.717Z,15.1
2022-12-20T08:45:44.933Z,15.2
2022-12-20T08:46:47.759Z,15.1
2022-12-20T08:47:50.067Z,15.2
2022-12-20T08:48:52.623Z,15.2
2022-12-20T08:49:54.927Z,15.2
2022-12-20T08:50:57.714Z,15.3
2022-12-20T08:52:00.016Z,15.2
2022-12-20T08:53:02.297Z,15.2
2022-12-20T08:54:03.979Z,15.2
2022-12-20T08:55:06.142Z,15.3
2022-12-20T08:56:08.706Z,15.2
2022-12-20T08:57:11.267Z,15.2
2022-12-20T08:58:13.808Z,15.2
2022-12-20T08:59:16.343Z,15.2
2022-12-20T09:00:18.631Z,15.2
2022-12-20T09:01:21.164Z,15.2
2022-12-20T09:02:24.668Z,15.2
2022-12-20T09:03:27.975Z,15.3
2022-12-20T09:04:30.810Z,15.2
2022-12-20T09:05:33.361Z,15.1
2022-12-20T09:06:36.009Z,15.2
2022-12-20T09:07:38.010Z,15.1
2022-12-20T09:08:40.260Z,15.2
2022-12-20T09:09:42.610Z,15.2
2022-12-20T09:10:44.846Z,15.3
2022-12-20T09:11:47.126Z,15.2
2022-12-20T09:12:49.362Z,15.3
2022-12-20T09:13:51.951Z,15.2
2022-12-20T09:14:53.939Z,15.2
2022-12-20T09:15:56.607Z,15.2
2022-12-20T09:16:59.083Z,15.3
2022-12-20T09:18:01.655Z,15.2
2022-12-20T09:20:09.135Z,15.1
2022-12-20T09:21:11.507Z,15.2
2022-12-20T09:22:13.877Z,15.2
2022-12-20T09:23:16.435Z,15.2
2022-12-20T09:24:18.394Z,15.2
2022-12-20T09:25:20.952Z,15.2
2022-12-20T09:26:23.499Z,15.3
2022-12-20T09:27:26.041Z,15.2
2022-12-20T09:28:28.297Z,15.2
2022-12-20T09:30:35.561Z,15.2
2022-12-20T09:31:38.254Z,15.2
2022-12-20T09:32:40.554Z,15.2
2022-12-20T09:33:42.834Z,15.2
2022-12-20T09:34:59.726Z,15.2
2022-12-20T09:36:01.984Z,15.2
2022-12-20T09:37:04.562Z,15.2
2022-12-20T09:38:07.451Z,15.2
2022-12-20T09:39:09.751Z,15.2
2022-12-20T09:40:11.999Z,15.1
2022-12-20T09:42:19.213Z,15.2
2022-12-20T09:43:21.476Z,15.2
2022-12-20T09:44:24.016Z,15.2
2022-12-20T09:45:26.329Z,15.2
2022-12-20T09:46:29.540Z,15.2
2022-12-20T09:47:32.448Z,15.2
2022-12-20T09:48:34.779Z,15.3
2022-12-20T09:49:51.695Z,15.2
2022-12-20T09:50:53.714Z,15.2
2022-12-20T09:51:55.996Z,15.2
2022-12-20T09:52:58.614Z,15.2
2022-12-20T09:54:01.242Z,15.1
2022-12-20T09:55:03.248Z,15.2
2022-12-20T09:56:05.501Z,15.2
2022-12-20T09:57:08.025Z,15.2
2022-12-20T09:58:10.546Z,15.1
2022-12-20T09:59:12.827Z,15.1
2022-12-20T10:00:15.419Z,15.2
2022-12-20T10:03:28.334Z,15.3
2022-12-20T10:04:32.376Z,15.2
2022-12-20T10:06:40.978Z,15.2
2022-12-20T10:07:43.514Z,15.2
2022-12-20T10:08:46.067Z,15.2
2022-12-20T10:09:48.733Z,15.2
2022-12-20T10:10:50.702Z,15.1
2022-12-20T10:11:52.953Z,15.2
2022-12-20T10:12:54.910Z,15.2
2022-12-20T10:13:57.471Z,15.2
2022-12-20T10:14:59.760Z,15.2
2022-12-20T10:16:02.155Z,15.2
2022-12-20T10:17:05.000Z,15.2
2022-12-20T10:18:07.283Z,15.2
2022-12-20T10:19:09.248Z,15.2
2022-12-20T10:20:11.745Z,15.1
2022-12-20T10:21:14.008Z,15.1
2022-12-20T10:22:16.308Z,15.2
2022-12-20T10:23:18.841Z,15.2
2022-12-20T10:24:21.413Z,15.2
2022-12-20T10:25:24.047Z,15.2
2022-12-20T10:26:26.290Z,15.2
2022-12-20T10:27:28.824Z,15.1
2022-12-20T10:28:31.362Z,15.2
2022-12-20T10:29:33.611Z,15.2
2022-12-20T10:30:35.858Z,15.2
2022-12-20T10:31:38.526Z,15.2
2022-12-20T10:32:41.309Z,15.2
2022-12-20T10:33:45.709Z,15.1
2022-12-20T10:34:49.295Z,15.2
2022-12-20T10:35:51.545Z,15.2
2022-12-20T10:36:54.046Z,15.2
2022-12-20T10:39:01.571Z,15.2
2022-12-20T10:42:14.098Z,15.2
2022-12-20T10:43:16.694Z,15.2
2022-12-20T10:44:19.236Z,15.2
2022-12-20T10:45:21.759Z,15.1
2022-12-20T10:46:23.223Z,15.2
2022-12-20T10:47:25.673Z,15.2
2022-12-20T10:48:27.917Z,15.2
2022-12-20T10:49:29.869Z,15.3
2022-12-20T10:50:32.548Z,15.2
2022-12-20T10:51:35.062Z,15.2
2022-12-20T10:52:37.044Z,15.2
2022-12-20T10:53:39.042Z,15.2
2022-12-20T10:54:41.292Z,15.2
2022-12-20T10:55:43.855Z,15.3
2022-12-20T10:56:46.091Z,15.2
2022-12-20T10:57:48.395Z,15.2
2022-12-20T10:58:50.985Z,15.2
2022-12-20T10:59:53.520Z,15.2
2022-12-20T11:00:56.211Z,15.2
2022-12-20T11:01:58.651Z,15.2
2022-12-20T11:03:01.948Z,15.2
2022-12-20T11:04:05.791Z,15.2
2022-12-20T11:05:08.965Z,15.2
2022-12-20T11:06:11.266Z,15.2
2022-12-20T11:07:13.813Z,15.2
2022-12-20T11:09:21.043Z,15.3
2022-12-20T11:10:23.449Z,15.1
2022-12-20T11:11:25.842Z,15.2
2022-12-20T11:12:28.969Z,15.3
2022-12-20T11:13:30.980Z,15.2
2022-12-20T11:15:38.551Z,15.2
2022-12-20T11:16:41.456Z,15.2
2022-12-20T11:17:44.355Z,15.2
2022-12-20T11:18:46.946Z,15.2
2022-12-20T11:19:48.947Z,15.3
2022-12-20T11:20:51.171Z,15.2
2022-12-20T11:21:53.435Z,15.1
2022-12-20T11:22:55.674Z,15.2
2022-12-20T11:23:57.963Z,15.2
2022-12-20T11:25:00.515Z,15.1
2022-12-20T11:26:02.749Z,15.2
2022-12-20T11:27:06.021Z,15.2
2022-12-20T11:28:10.751Z,15.2
2022-12-20T11:29:13.089Z,15.1
2022-12-20T11:30:15.788Z,15.2
2022-12-20T11:31:18.467Z,15.2
2022-12-20T11:32:20.990Z,15.2
2022-12-20T11:33:23.522Z,15.2
2022-12-20T11:34:25.761Z,15.2
2022-12-20T11:35:28.057Z,15.2
2022-12-20T11:36:30.608Z,15.2
2022-12-20T11:37:32.894Z,15.3
2022-12-20T11:38:35.168Z,15.1
2022-12-20T11:39:37.455Z,15.2
2022-12-20T11:40:39.804Z,15.2
2022-12-20T11:41:42.320Z,15.2
2022-12-20T11:42:45.714Z,15.2
2022-12-20T11:45:57.937Z,15.2
2022-12-20T11:47:00.902Z,15.2
2022-12-20T11:48:03.650Z,15.1
2022-12-20T11:49:06.161Z,15.2
2022-12-20T11:50:08.668Z,15.3
2022-12-20T11:52:15.657Z,15.2
2022-12-20T11:53:18.190Z,15.2
2022-12-20T11:54:19.892Z,15.2
2022-12-20T11:55:22.420Z,15.2
2022-12-20T11:56:25.010Z,15.2
2022-12-20T11:57:27.247Z,15.2
2022-12-20T11:58:30.060Z,15.2
2022-12-20T11:59:32.618Z,15.1
2022-12-20T12:00:34.878Z,15.2
2022-12-20T12:01:37.830Z,15.1
2022-12-20T12:02:41.295Z,15.2
2022-12-20T12:03:44.374Z,15.3
2022-12-20T12:04:47.050Z,15.1
2022-12-20T12:05:50.028Z,15.3
2022-12-20T12:06:52.418Z,15.2
2022-12-20T12:07:54.374Z,15.2
2022-12-20T12:08:56.902Z,15.2
2022-12-20T12:09:58.593Z,15.1
2022-12-20T12:11:01.249Z,15.2
2022-12-20T12:13:08.736Z,15.2
2022-12-20T12:14:10.742Z,15.2
2022-12-20T12:16:18.068Z,15.2
2022-12-20T12:17:20.926Z,15.2
2022-12-20T12:18:23.518Z,15.2
2022-12-20T12:19:25.771Z,15.2
2022-12-20T12:20:28.100Z,15.2
2022-12-20T12:21:30.598Z,15.2
2022-12-20T12:22:33.138Z,15.2
2022-12-20T12:23:34.816Z,15.2
2022-12-20T12:24:37.178Z,15.2
2022-12-20T12:25:39.628Z,15.2
2022-12-20T12:26:44.025Z,15.2
2022-12-20T12:27:46.619Z,15.2
2022-12-20T12:28:48.616Z,15.2
2022-12-20T12:29:51.181Z,15.2
2022-12-20T12:30:53.427Z,15.2
2022-12-20T12:31:55.836Z,15.3
2022-12-20T12:32:58.236Z,15.2
2022-12-20T12:34:00.852Z,15.2
2022-12-20T12:35:03.711Z,15.2
2022-12-20T12:36:05.690Z,15.2
2022-12-20T12:37:07.684Z,15.2
2022-12-20T12:38:10.269Z,15.2
2022-12-20T12:39:12.119Z,15.2
2022-12-20T12:40:14.599Z,15.2
2022-12-20T12:41:17.288Z,15.2
2022-12-20T12:42:19.541Z,15.3
2022-12-20T12:43:23.691Z,15.2
2022-12-20T12:44:26.278Z,15.1
2022-12-20T12:45:28.653Z,15.2
2022-12-20T12:46:32.021Z,15.1
2022-12-20T12:47:34.400Z,15.2
2022-12-20T12:48:36.415Z,15.2
2022-12-20T12:49:39.010Z,15.2
2022-12-20T12:50:41.533Z,15.2
2022-12-20T12:51:43.499Z,15.2
2022-12-20T12:52:45.493Z,15.2
2022-12-20T12:53:47.757Z,15.1
2022-12-20T12:54:49.993Z,15.2
2022-12-20T12:56:02.582Z,15.2
2022-12-20T12:56:59.328Z,15.2
2022-12-20T12:58:01.628Z,15.2
2022-12-20T12:59:04.172Z,15.2
2022-12-20T13:00:06.223Z,15.1
2022-12-20T13:01:08.916Z,15.2
2022-12-20T13:02:11.910Z,15.2
2022-12-20T13:03:15.644Z,15.2
2022-12-20T13:04:18.197Z,15.2
2022-12-20T13:06:25.821Z,15.1
2022-12-20T13:07:27.804Z,15.2
2022-12-20T13:08:30.032Z,15.2
2022-12-20T13:09:32.578Z,15.2
2022-12-20T13:10:35.140Z,15.2
2022-12-20T13:12:43.471Z,15.2
2022-12-20T13:13:46.003Z,15.2
2022-12-20T13:14:48.566Z,15.2
2022-12-20T13:15:50.928Z,15.2
2022-12-20T13:17:58.759Z,15.2
2022-12-20T13:19:01.245Z,15.2
2022-12-20T13:20:03.606Z,15.3
2022-12-20T13:21:06.021Z,15.2
2022-12-20T13:22:07.693Z,15.2
2022-12-20T13:23:10.826Z,15.2
2022-12-20T13:24:13.477Z,15.2
2022-12-20T13:25:15.411Z,15.1
2022-12-20T13:26:17.659Z,15.2
2022-12-20T13:27:20.188Z,15.2
2022-12-20T13:28:22.745Z,15.2
2022-12-20T13:29:25.812Z,15.2
2022-12-20T13:30:28.702Z,15.2
2022-12-20T13:31:31.788Z,15.2
2022-12-20T13:32:34.903Z,15.2
2022-12-20T13:33:37.158Z,15.2
2022-12-20T13:34:39.157Z,15.2
2022-12-20T13:35:41.160Z,15.3
2022-12-20T13:36:43.813Z,15.2
2022-12-20T13:38:51.351Z,15.2
2022-12-20T13:39:53.952Z,15.1
2022-12-20T13:40:56.229Z,15.2
2022-12-20T13:41:58.816Z,15.2
2022-12-20T13:43:01.416Z,15.2
2022-12-20T13:44:03.424Z,15.2
2022-12-20T13:45:05.973Z,15.2
2022-12-20T13:46:08.370Z,15.2
2022-12-20T13:47:10.983Z,15.2
2022-12-20T13:48:13.563Z,15.2
2022-12-20T13:49:15.574Z,15.2
2022-12-20T13:50:17.846Z,15.2
2022-12-20T13:51:19.879Z,15.2
2022-12-20T13:52:22.552Z,15.2
2022-12-20T13:53:25.078Z,15.2
2022-12-20T13:54:28.273Z,15.2
2022-12-20T13:55:30.802Z,15.2
2022-12-20T13:56:33.049Z,15.1
2022-12-20T13:57:35.650Z,15.2
2022-12-20T13:58:38.185Z,15.2
2022-12-20T13:59:40.451Z,15.2
2022-12-20T14:00:43.105Z,15.2
2022-12-20T14:01:45.944Z,15.2
2022-12-20T14:02:49.500Z,15.2
2022-12-20T14:03:52.582Z,15.2
2022-12-20T14:04:56.104Z,15.3
2022-12-20T14:05:58.556Z,15.2
2022-12-20T14:07:00.967Z,15.2
2022-12-20T14:08:03.586Z,15.1
2022-12-20T14:09:05.623Z,15.2
2022-12-20T14:10:07.643Z,15.2
2022-12-20T14:11:09.923Z,15.2
2022-12-20T14:12:11.988Z,15.2
2022-12-20T14:13:18.480Z,15.3
2022-12-20T14:14:21.012Z,15.2
2022-12-20T14:15:23.044Z,15.2
2022-12-20T14:16:25.839Z,15.2
2022-12-20T14:17:28.442Z,15.2
2022-12-20T14:18:30.448Z,15.2
2022-12-20T14:19:32.745Z,15.2
2022-12-20T14:20:34.502Z,15.2
2022-12-20T14:21:36.550Z,15.2
2022-12-20T14:22:39.127Z,15.3
2022-12-20T14:23:41.892Z,15.2
2022-12-20T14:24:43.885Z,15.2
2022-12-20T14:25:46.404Z,15.2
2022-12-20T14:26:48.954Z,15.2
2022-12-20T14:27:50.945Z,15.2
2022-12-20T14:28:53.171Z,15.2
2022-12-20T14:29:55.733Z,15.2
2022-12-20T14:31:12.684Z,15.2